Time;durP1;ratioP1;P1;durP2;ratioP2;P2;SDS_P1;SDS_P2;PMS_P1;PMS_P2;Temp;Humidity;BMP_temperature;BMP_pressure;BME280_temperature;BME280_humidity;BME280_pressure;Samples;Min_cycle;Max_cycle;Signal;HPM_P1;HPM_P2
2023/12/19 00:02:00;;;;;;;;;;;5.90;99.90;;;;;;5111498;27;19919;-71
2023/12/19 00:04:25;;;;;;;;;;;5.80;99.90;;;;;;5107775;27;19947;-71
2023/12/19 00:06:51;;;;;;;;;;;5.90;99.90;;;;;;5105985;28;19973;-71
2023/12/19 00:09:16;;;;;;;;;;;5.80;99.90;;;;;;5104257;28;19912;-71
2023/12/19 00:11:42;;;;;;;;;;;5.90;99.90;;;;;;5104963;27;20295;-71
2023/12/19 00:14:08;;;;;;;;;;;5.80;99.90;;;;;;5112931;27;20364;-71
2023/12/19 00:16:33;;;;;;;;;;;5.90;99.90;;;;;;5113239;28;19915;-72
2023/12/19 00:18:59;;;;;;;;;;;5.90;99.90;;;;;;5110030;27;19919;-71
2023/12/19 00:21:24;;;;;;;;;;;5.80;99.90;;;;;;5106464;27;19964;-72
2023/12/19 00:23:50;;;;;;;;;;;5.80;99.90;;;;;;5107768;27;19986;-72
2023/12/19 00:26:16;;;;;;;;;;;5.80;99.90;;;;;;5106472;28;20007;-71
2023/12/19 00:28:43;;;;;;;;;;;5.90;99.90;;;;;;5109021;28;20552;-71
2023/12/19 00:31:09;;;;;;;;;;;5.80;99.90;;;;;;5101224;27;19916;-72
2023/12/19 00:33:34;;;;;;;;;;;5.90;99.90;;;;;;5104923;28;19911;-71
2023/12/19 00:36:00;;;;;;;;;;;5.80;99.90;;;;;;5105013;28;19973;-72
2023/12/19 00:38:25;;;;;;;;;;;5.90;99.90;;;;;;5105813;27;19912;-71
2023/12/19 00:40:51;;;;;;;;;;;5.80;99.90;;;;;;5106206;28;19958;-71
2023/12/19 00:43:16;;;;;;;;;;;5.80;99.90;;;;;;5104999;28;19923;-71
2023/12/19 00:45:42;;;;;;;;;;;5.80;99.90;;;;;;5114291;27;19911;-71
2023/12/19 00:48:07;;;;;;;;;;;5.80;99.90;;;;;;5114065;27;19912;-71
2023/12/19 00:50:33;;;;;;;;;;;5.80;99.90;;;;;;5110019;27;20340;-71
2023/12/19 00:52:58;;;;;;;;;;;5.80;99.90;;;;;;5110177;27;19998;-72
2023/12/19 00:55:24;;;;;;;;;;;5.80;99.90;;;;;;5111648;27;19922;-71
2023/12/19 00:57:50;;;;;;;;;;;5.80;99.90;;;;;;5121945;27;20306;-71
2023/12/19 01:00:16;;;;;;;;;;;5.80;99.90;;;;;;5119391;27;19918;-71
2023/12/19 01:02:41;;;;;;;;;;;5.80;99.90;;;;;;5106717;28;20546;-71
2023/12/19 01:05:07;;;;;;;;;;;5.80;99.90;;;;;;5108373;27;20364;-71
2023/12/19 01:07:33;;;;;;;;;;;5.80;99.90;;;;;;5111336;27;20672;-71
2023/12/19 01:09:58;;;;;;;;;;;5.80;99.90;;;;;;5109599;27;19918;-72
2023/12/19 01:12:24;;;;;;;;;;;5.80;99.90;;;;;;5112934;27;20010;-71
2023/12/19 01:14:49;;;;;;;;;;;5.80;99.90;;;;;;5116162;27;19912;-71
2023/12/19 01:17:15;;;;;;;;;;;5.80;99.90;;;;;;5108303;27;20296;-71
2023/12/19 01:19:40;;;;;;;;;;;5.80;99.90;;;;;;5112147;27;19911;-71
2023/12/19 01:22:06;;;;;;;;;;;5.80;99.90;;;;;;5112600;27;19987;-71
2023/12/19 01:24:31;;;;;;;;;;;5.80;99.90;;;;;;5109392;27;20379;-71
2023/12/19 01:26:57;;;;;;;;;;;5.80;99.90;;;;;;5110142;27;19908;-71
2023/12/19 01:29:23;;;;;;;;;;;5.80;99.90;;;;;;5116218;27;20067;-71
2023/12/19 01:31:48;;;;;;;;;;;5.80;99.90;;;;;;5107926;28;20529;-71
2023/12/19 01:34:14;;;;;;;;;;;5.80;99.90;;;;;;5109811;27;19918;-72
2023/12/19 01:36:39;;;;;;;;;;;5.80;99.90;;;;;;5107287;27;19918;-71
2023/12/19 01:39:05;;;;;;;;;;;5.80;99.90;;;;;;5107447;28;20504;-72
2023/12/19 01:41:30;;;;;;;;;;;5.80;99.90;;;;;;5107454;28;20387;-71
2023/12/19 01:43:59;;;;;;;;;;;5.80;99.90;;;;;;5107212;28;19916;-71
2023/12/19 01:46:25;;;;;;;;;;;5.80;99.90;;;;;;5106038;27;20536;-71
2023/12/19 01:48:50;;;;;;;;;;;5.80;99.90;;;;;;5107588;27;19919;-71
2023/12/19 01:51:17;;;;;;;;;;;5.80;99.90;;;;;;5106182;27;19920;-71
2023/12/19 01:53:44;;;;;;;;;;;5.80;99.90;;;;;;5107629;28;19975;-71
2023/12/19 01:56:11;;;;;;;;;;;5.80;99.90;;;;;;5107468;28;19973;-71
2023/12/19 01:58:37;;;;;;;;;;;5.80;99.90;;;;;;5117329;27;19911;-71
2023/12/19 02:01:04;;;;;;;;;;;5.80;99.90;;;;;;5111488;27;19912;-71
2023/12/19 02:03:30;;;;;;;;;;;5.80;99.90;;;;;;5106468;28;20679;-71
2023/12/19 02:05:57;;;;;;;;;;;5.80;99.90;;;;;;5107777;27;20002;-72
2023/12/19 02:08:22;;;;;;;;;;;5.80;99.90;;;;;;5106534;28;20003;-71
2023/12/19 02:10:48;;;;;;;;;;;5.80;99.90;;;;;;5106255;27;20002;-71
2023/12/19 02:13:13;;;;;;;;;;;5.80;99.90;;;;;;5113750;27;19918;-71
2023/12/19 02:15:39;;;;;;;;;;;5.80;99.90;;;;;;5106705;28;19912;-71
2023/12/19 02:18:15;;;;;;;;;;;5.80;99.90;;;;;;5105108;28;19999;-71
2023/12/19 02:20:40;;;;;;;;;;;5.80;99.90;;;;;;5107101;27;19934;-71
2023/12/19 02:23:06;;;;;;;;;;;5.80;99.90;;;;;;5106604;27;19924;-71
2023/12/19 02:25:31;;;;;;;;;;;5.70;99.90;;;;;;5109851;27;19919;-71
2023/12/19 02:27:59;;;;;;;;;;;5.80;99.90;;;;;;5110614;27;20387;-71
2023/12/19 02:30:25;;;;;;;;;;;5.80;99.90;;;;;;5102777;28;20003;-71
2023/12/19 02:32:50;;;;;;;;;;;5.80;99.90;;;;;;5105929;28;19991;-71
2023/12/19 02:35:16;;;;;;;;;;;5.80;99.90;;;;;;5108090;27;19985;-71
2023/12/19 02:37:41;;;;;;;;;;;5.80;99.90;;;;;;5107096;27;20475;-71
2023/12/19 02:40:07;;;;;;;;;;;5.80;99.90;;;;;;5109503;27;19912;-71
2023/12/19 02:42:33;;;;;;;;;;;5.80;99.90;;;;;;5106194;27;19930;-71
2023/12/19 02:44:58;;;;;;;;;;;5.80;99.90;;;;;;5107269;27;19918;-71
2023/12/19 02:47:24;;;;;;;;;;;5.80;99.90;;;;;;5108054;27;20446;-71
2023/12/19 02:49:49;;;;;;;;;;;5.80;99.90;;;;;;5107428;27;19995;-71
2023/12/19 02:52:15;;;;;;;;;;;5.80;99.90;;;;;;5104452;28;19918;-71
2023/12/19 02:54:40;;;;;;;;;;;5.80;99.90;;;;;;5106265;28;20547;-71
2023/12/19 02:57:06;;;;;;;;;;;5.80;99.90;;;;;;5107117;27;19916;-71
2023/12/19 02:59:31;;;;;;;;;;;5.80;99.90;;;;;;5114656;27;19914;-71
2023/12/19 03:01:57;;;;;;;;;;;5.80;99.90;;;;;;5112531;27;19908;-71
2023/12/19 03:04:22;;;;;;;;;;;5.80;99.90;;;;;;5109115;27;19922;-71
2023/12/19 03:06:48;;;;;;;;;;;5.80;99.90;;;;;;5106827;27;20273;-71
2023/12/19 03:09:13;;;;;;;;;;;5.80;99.90;;;;;;5105271;28;20002;-71
2023/12/19 03:11:39;;;;;;;;;;;5.80;99.90;;;;;;5104580;28;19985;-71
2023/12/19 03:14:04;;;;;;;;;;;5.80;99.90;;;;;;5105471;28;19912;-71
2023/12/19 03:16:30;;;;;;;;;;;5.80;99.90;;;;;;5114129;27;20583;-71
2023/12/19 03:18:56;;;;;;;;;;;5.80;99.90;;;;;;5105754;27;20383;-71
2023/12/19 03:21:21;;;;;;;;;;;5.80;99.90;;;;;;5105401;28;19915;-71
2023/12/19 03:23:47;;;;;;;;;;;5.80;99.90;;;;;;5115102;27;20379;-71
2023/12/19 03:26:12;;;;;;;;;;;5.80;99.90;;;;;;5105872;28;19908;-71
2023/12/19 03:28:37;;;;;;;;;;;5.80;99.90;;;;;;5105611;28;19934;-71
2023/12/19 03:31:04;;;;;;;;;;;5.80;99.90;;;;;;5105221;28;20343;-71
2023/12/19 03:33:29;;;;;;;;;;;5.80;99.90;;;;;;5113059;27;20407;-71
2023/12/19 03:35:55;;;;;;;;;;;5.80;99.90;;;;;;5105438;28;19912;-71
2023/12/19 03:38:21;;;;;;;;;;;5.80;99.90;;;;;;5104553;28;19919;-71
2023/12/19 03:40:47;;;;;;;;;;;5.80;99.90;;;;;;5105336;27;20424;-71
2023/12/19 03:43:12;;;;;;;;;;;5.80;99.90;;;;;;5105457;28;19915;-71
2023/12/19 03:45:38;;;;;;;;;;;5.80;99.90;;;;;;5104730;28;19912;-71
2023/12/19 03:48:03;;;;;;;;;;;5.80;99.90;;;;;;5111293;27;19915;-71
2023/12/19 03:50:29;;;;;;;;;;;5.90;99.90;;;;;;5107389;27;19998;-71
2023/12/19 03:52:54;;;;;;;;;;;5.80;99.90;;;;;;5104831;28;20249;-71
2023/12/19 03:55:20;;;;;;;;;;;5.80;99.90;;;;;;5102254;28;19912;-72
2023/12/19 03:57:45;;;;;;;;;;;5.90;99.90;;;;;;5103667;28;19912;-71
2023/12/19 04:00:11;;;;;;;;;;;5.90;99.90;;;;;;5113871;28;20006;-71
2023/12/19 04:02:37;;;;;;;;;;;5.90;99.90;;;;;;5104773;28;20665;-71
2023/12/19 04:05:02;;;;;;;;;;;5.90;99.90;;;;;;5105071;28;19919;-71
2023/12/19 04:07:28;;;;;;;;;;;5.90;99.90;;;;;;5106574;28;20453;-71
2023/12/19 04:09:53;;;;;;;;;;;5.90;99.90;;;;;;5105260;27;19946;-71
2023/12/19 04:12:19;;;;;;;;;;;5.80;99.90;;;;;;5107451;28;19952;-71
2023/12/19 04:14:44;;;;;;;;;;;5.90;99.90;;;;;;5104887;28;19943;-71
2023/12/19 04:17:11;;;;;;;;;;;5.80;99.90;;;;;;5105098;28;20392;-71
2023/12/19 04:19:36;;;;;;;;;;;5.90;99.90;;;;;;5105502;28;19969;-71
2023/12/19 04:22:02;;;;;;;;;;;5.90;99.90;;;;;;5107191;28;19912;-71
2023/12/19 04:24:28;;;;;;;;;;;5.80;99.90;;;;;;5106994;28;19935;-71
2023/12/19 04:26:53;;;;;;;;;;;5.90;99.90;;;;;;5108306;28;20750;-71
2023/12/19 04:29:19;;;;;;;;;;;5.90;99.90;;;;;;5104589;28;19920;-71
2023/12/19 04:31:44;;;;;;;;;;;5.90;99.90;;;;;;5109077;28;19919;-71
2023/12/19 04:34:10;;;;;;;;;;;5.90;99.90;;;;;;5108369;27;19912;-71
2023/12/19 04:36:35;;;;;;;;;;;5.90;99.90;;;;;;5108515;28;20459;-71
2023/12/19 04:39:02;;;;;;;;;;;5.90;99.90;;;;;;5108723;28;19916;-71
2023/12/19 04:41:27;;;;;;;;;;;5.90;99.90;;;;;;5108567;28;19981;-71
2023/12/19 04:43:53;;;;;;;;;;;5.90;99.90;;;;;;5108786;28;19916;-71
2023/12/19 04:46:19;;;;;;;;;;;5.90;99.90;;;;;;5108650;28;19911;-71
2023/12/19 04:48:45;;;;;;;;;;;5.90;99.90;;;;;;5108502;28;20324;-71
2023/12/19 04:51:18;;;;;;;;;;;5.90;99.90;;;;;;5107193;28;19911;-71
2023/12/19 04:53:44;;;;;;;;;;;5.90;99.90;;;;;;5107707;28;20665;-71
2023/12/19 04:56:11;;;;;;;;;;;5.90;99.90;;;;;;5106441;28;19918;-71
2023/12/19 04:58:37;;;;;;;;;;;5.90;99.90;;;;;;5117079;27;20011;-71
2023/12/19 05:01:03;;;;;;;;;;;5.90;99.90;;;;;;5108218;28;19915;-71
2023/12/19 05:03:29;;;;;;;;;;;5.90;99.90;;;;;;5114496;27;19916;-71
2023/12/19 05:05:54;;;;;;;;;;;5.90;99.90;;;;;;5111088;27;19947;-71
2023/12/19 05:08:20;;;;;;;;;;;5.90;99.90;;;;;;5111912;27;19918;-71
2023/12/19 05:10:45;;;;;;;;;;;5.90;99.90;;;;;;5111994;27;19920;-71
2023/12/19 05:13:11;;;;;;;;;;;5.90;99.90;;;;;;5108587;28;20357;-71
2023/12/19 05:15:36;;;;;;;;;;;6.00;99.90;;;;;;5117903;27;19919;-71
2023/12/19 05:18:02;;;;;;;;;;;5.90;99.90;;;;;;5118471;27;19960;-71
2023/12/19 05:20:27;;;;;;;;;;;6.00;99.90;;;;;;5112063;27;19908;-71
2023/12/19 05:22:53;;;;;;;;;;;6.00;99.90;;;;;;5108489;27;20357;-71
2023/12/19 05:25:19;;;;;;;;;;;6.00;99.90;;;;;;5107210;28;19912;-71
2023/12/19 05:27:44;;;;;;;;;;;6.00;99.90;;;;;;5114258;27;19915;-71
2023/12/19 05:30:13;;;;;;;;;;;6.00;99.90;;;;;;5120050;27;20410;-71
2023/12/19 05:32:39;;;;;;;;;;;6.00;99.90;;;;;;5116413;27;19911;-71
2023/12/19 05:35:06;;;;;;;;;;;6.00;99.90;;;;;;5108493;28;20304;-71
2023/12/19 05:37:32;;;;;;;;;;;5.90;99.90;;;;;;5109771;27;20011;-71
2023/12/19 05:39:57;;;;;;;;;;;6.00;99.90;;;;;;5110297;27;20361;-71
2023/12/19 05:42:23;;;;;;;;;;;6.00;99.90;;;;;;5107822;28;19923;-71
2023/12/19 05:44:49;;;;;;;;;;;6.00;99.90;;;;;;5116490;27;19927;-71
2023/12/19 05:47:14;;;;;;;;;;;5.90;99.90;;;;;;5106928;28;20435;-71
2023/12/19 05:49:40;;;;;;;;;;;6.00;99.90;;;;;;5106340;28;19915;-71
2023/12/19 05:52:06;;;;;;;;;;;6.00;99.90;;;;;;5106751;27;19957;-71
2023/12/19 05:54:32;;;;;;;;;;;5.90;99.90;;;;;;5106978;28;19915;-71
2023/12/19 05:56:57;;;;;;;;;;;6.00;99.90;;;;;;5106076;28;19912;-71
2023/12/19 05:59:23;;;;;;;;;;;6.00;99.90;;;;;;5125232;27;20023;-71
2023/12/19 06:01:48;;;;;;;;;;;6.00;99.90;;;;;;5118220;27;19911;-71
2023/12/19 06:04:14;;;;;;;;;;;6.00;99.90;;;;;;5107363;28;20387;-71
2023/12/19 06:06:44;;;;;;;;;;;6.00;99.90;;;;;;5105458;28;19915;-71
2023/12/19 06:09:12;;;;;;;;;;;6.00;99.90;;;;;;5107257;28;19919;-72
2023/12/19 06:11:38;;;;;;;;;;;6.00;99.90;;;;;;5106567;27;20335;-71
2023/12/19 06:14:07;;;;;;;;;;;6.00;99.90;;;;;;5107260;28;19916;-71
2023/12/19 06:16:33;;;;;;;;;;;6.00;99.90;;;;;;5115331;27;19912;-71
2023/12/19 06:18:58;;;;;;;;;;;6.00;99.90;;;;;;5110385;27;20735;-71
2023/12/19 06:21:24;;;;;;;;;;;6.00;99.90;;;;;;5111530;27;20268;-71
2023/12/19 06:23:50;;;;;;;;;;;6.00;99.90;;;;;;5108869;27;19947;-71
2023/12/19 06:26:16;;;;;;;;;;;6.00;99.90;;;;;;5106609;27;19919;-71
2023/12/19 06:28:41;;;;;;;;;;;6.00;99.90;;;;;;5108890;27;19912;-71
2023/12/19 06:31:07;;;;;;;;;;;6.00;99.90;;;;;;5115549;27;19972;-71
2023/12/19 06:33:32;;;;;;;;;;;6.00;99.90;;;;;;5109854;27;19927;-71
2023/12/19 06:35:58;;;;;;;;;;;6.00;99.90;;;;;;5108703;27;20664;-71
2023/12/19 06:38:24;;;;;;;;;;;6.10;99.90;;;;;;5107202;27;20610;-71
2023/12/19 06:40:49;;;;;;;;;;;6.00;99.90;;;;;;5113135;27;19912;-71
2023/12/19 06:43:15;;;;;;;;;;;6.00;99.90;;;;;;5114591;27;19915;-71
2023/12/19 06:45:40;;;;;;;;;;;6.10;99.90;;;;;;5109027;27;19911;-71
2023/12/19 06:48:06;;;;;;;;;;;6.10;99.90;;;;;;5118071;27;19988;-71
2023/12/19 06:50:31;;;;;;;;;;;6.00;99.90;;;;;;5109825;27;20272;-71
2023/12/19 06:52:57;;;;;;;;;;;6.00;99.90;;;;;;5105624;28;20269;-71
2023/12/19 06:55:22;;;;;;;;;;;6.10;99.90;;;;;;5105474;28;19908;-71
2023/12/19 06:57:48;;;;;;;;;;;6.00;99.90;;;;;;5106073;28;19912;-71
2023/12/19 07:00:15;;;;;;;;;;;6.10;99.90;;;;;;5104242;28;19943;-71
2023/12/19 07:02:41;;;;;;;;;;;6.10;99.90;;;;;;5105713;28;19916;-71
2023/12/19 07:05:07;;;;;;;;;;;6.10;99.90;;;;;;5104507;28;19947;-71
2023/12/19 07:07:33;;;;;;;;;;;6.10;99.90;;;;;;5111165;27;19946;-71
2023/12/19 07:09:58;;;;;;;;;;;6.10;99.90;;;;;;5110245;27;20400;-71
2023/12/19 07:12:24;;;;;;;;;;;6.10;99.90;;;;;;5114777;27;19947;-71
2023/12/19 07:14:49;;;;;;;;;;;6.10;99.90;;;;;;5118887;27;19920;-71
2023/12/19 07:17:15;;;;;;;;;;;6.10;99.90;;;;;;5105529;28;20345;-71
2023/12/19 07:19:40;;;;;;;;;;;6.10;99.90;;;;;;5105246;28;19918;-71
2023/12/19 07:22:06;;;;;;;;;;;6.10;99.90;;;;;;5106026;28;20015;-71
2023/12/19 07:24:32;;;;;;;;;;;6.10;99.90;;;;;;5115794;27;20002;-71
2023/12/19 07:26:58;;;;;;;;;;;6.10;99.90;;;;;;5111580;27;19912;-71
2023/12/19 07:29:23;;;;;;;;;;;6.10;99.90;;;;;;5104939;27;19973;-71
2023/12/19 07:31:50;;;;;;;;;;;6.10;99.90;;;;;;5106276;27;19919;-72
2023/12/19 07:34:16;;;;;;;;;;;6.10;99.90;;;;;;5104522;28;20007;-71
2023/12/19 07:36:41;;;;;;;;;;;6.10;99.90;;;;;;5113605;27;20015;-71
2023/12/19 07:39:07;;;;;;;;;;;6.10;99.90;;;;;;5105386;28;19958;-71
2023/12/19 07:41:33;;;;;;;;;;;6.10;99.90;;;;;;5114359;27;19907;-71
2023/12/19 07:43:58;;;;;;;;;;;6.20;99.90;;;;;;5104986;28;20339;-71
2023/12/19 07:46:24;;;;;;;;;;;6.20;99.90;;;;;;5105169;28;19919;-71
2023/12/19 07:48:50;;;;;;;;;;;6.20;99.90;;;;;;5113844;27;19950;-71
2023/12/19 07:51:16;;;;;;;;;;;6.10;99.90;;;;;;5122572;27;19917;-71
2023/12/19 07:53:42;;;;;;;;;;;6.10;99.90;;;;;;5113765;27;19912;-71
2023/12/19 07:56:08;;;;;;;;;;;6.20;99.90;;;;;;5104005;28;19911;-71
2023/12/19 07:58:33;;;;;;;;;;;6.20;99.90;;;;;;5104315;28;20366;-72
2023/12/19 08:00:59;;;;;;;;;;;6.20;99.90;;;;;;5104641;28;19919;-71
2023/12/19 08:03:25;;;;;;;;;;;6.20;99.90;;;;;;5113535;28;19923;-71
2023/12/19 08:05:50;;;;;;;;;;;6.20;99.90;;;;;;5116900;27;19985;-71
2023/12/19 08:08:19;;;;;;;;;;;6.20;99.90;;;;;;5117010;27;19916;-71
2023/12/19 08:10:45;;;;;;;;;;;6.20;99.90;;;;;;5097064;28;19916;-71
2023/12/19 08:13:11;;;;;;;;;;;6.20;99.90;;;;;;5113029;28;19912;-71
2023/12/19 08:15:36;;;;;;;;;;;6.20;99.90;;;;;;5102973;28;19908;-71
2023/12/19 08:18:02;;;;;;;;;;;6.20;99.90;;;;;;5118086;27;19908;-71
2023/12/19 08:20:28;;;;;;;;;;;6.20;99.90;;;;;;5104905;27;19998;-71
2023/12/19 08:22:53;;;;;;;;;;;6.20;99.90;;;;;;5104464;28;19920;-72
2023/12/19 08:25:19;;;;;;;;;;;6.20;99.90;;;;;;5103982;28;19919;-71
2023/12/19 08:27:44;;;;;;;;;;;6.20;99.90;;;;;;5116423;27;20529;-71
2023/12/19 08:30:10;;;;;;;;;;;6.30;99.90;;;;;;5106753;28;20348;-71
2023/12/19 08:32:36;;;;;;;;;;;6.30;99.90;;;;;;5106427;28;19916;-71
2023/12/19 08:35:02;;;;;;;;;;;6.30;99.90;;;;;;5114138;27;19970;-71
2023/12/19 08:37:28;;;;;;;;;;;6.30;99.90;;;;;;5105777;27;19912;-71
2023/12/19 08:39:56;;;;;;;;;;;6.20;99.90;;;;;;5113038;27;20317;-72
2023/12/19 08:42:22;;;;;;;;;;;6.30;99.90;;;;;;5117647;28;19915;-71
2023/12/19 08:44:48;;;;;;;;;;;6.20;99.90;;;;;;5104224;28;19915;-71
2023/12/19 08:47:14;;;;;;;;;;;6.30;99.90;;;;;;5094201;28;20013;-71
2023/12/19 08:49:43;;;;;;;;;;;6.30;99.90;;;;;;5103129;27;19996;-71
2023/12/19 08:52:09;;;;;;;;;;;6.30;99.90;;;;;;5100690;28;19961;-71
2023/12/19 08:54:34;;;;;;;;;;;6.30;99.90;;;;;;5104111;27;20015;-71
2023/12/19 08:56:59;;;;;;;;;;;6.30;99.90;;;;;;5099828;28;20353;-71
2023/12/19 08:59:25;;;;;;;;;;;6.30;99.90;;;;;;5098708;28;19919;-71
2023/12/19 09:01:51;;;;;;;;;;;6.30;99.90;;;;;;5099906;28;19908;-71
2023/12/19 09:04:17;;;;;;;;;;;6.30;99.90;;;;;;5102653;27;20018;-71
2023/12/19 09:06:42;;;;;;;;;;;6.30;99.90;;;;;;5101193;28;19912;-71
2023/12/19 09:09:11;;;;;;;;;;;6.30;99.90;;;;;;5098769;28;19960;-71
2023/12/19 09:11:37;;;;;;;;;;;6.30;99.90;;;;;;5107067;27;19919;-71
2023/12/19 09:14:02;;;;;;;;;;;6.30;99.90;;;;;;5104842;28;19961;-71
2023/12/19 09:16:28;;;;;;;;;;;6.30;99.90;;;;;;5101813;28;19912;-71
2023/12/19 09:18:55;;;;;;;;;;;6.40;99.90;;;;;;5108850;27;19923;-72
2023/12/19 09:21:21;;;;;;;;;;;6.40;99.90;;;;;;5107195;27;20623;-72
2023/12/19 09:23:46;;;;;;;;;;;6.30;99.90;;;;;;5103656;28;19916;-71
2023/12/19 09:26:13;;;;;;;;;;;6.40;99.90;;;;;;5103702;27;19912;-71
2023/12/19 09:28:39;;;;;;;;;;;6.40;99.90;;;;;;5105239;27;19924;-71
2023/12/19 09:31:07;;;;;;;;;;;6.40;99.90;;;;;;5109224;27;19922;-71
2023/12/19 09:33:34;;;;;;;;;;;6.40;99.90;;;;;;5109248;27;20280;-71
2023/12/19 09:36:00;;;;;;;;;;;6.40;99.90;;;;;;5107534;28;19958;-71
2023/12/19 09:38:26;;;;;;;;;;;6.40;99.90;;;;;;5113386;27;19912;-71
2023/12/19 09:40:51;;;;;;;;;;;6.40;99.90;;;;;;5099496;27;19922;-71
2023/12/19 09:43:17;;;;;;;;;;;6.40;99.90;;;;;;5103931;28;19922;-71
2023/12/19 09:45:43;;;;;;;;;;;6.40;99.90;;;;;;5110336;27;19907;-71
2023/12/19 09:48:12;;;;;;;;;;;6.40;99.90;;;;;;5119505;27;20722;-71
2023/12/19 09:50:42;;;;;;;;;;;6.40;99.90;;;;;;5118719;27;19908;-71
2023/12/19 09:53:09;;;;;;;;;;;6.40;99.90;;;;;;5110508;27;19908;-71
2023/12/19 09:55:42;;;;;;;;;;;6.40;99.90;;;;;;5112358;27;19976;-71
2023/12/19 09:58:08;;;;;;;;;;;6.40;99.90;;;;;;5116767;27;19965;-71
2023/12/19 10:00:36;;;;;;;;;;;6.50;99.90;;;;;;5099098;27;19980;-71
2023/12/19 10:03:03;;;;;;;;;;;6.50;99.90;;;;;;5119128;27;19955;-71
2023/12/19 10:05:29;;;;;;;;;;;6.50;99.90;;;;;;5088991;27;19932;-71
2023/12/19 10:07:58;;;;;;;;;;;6.50;99.90;;;;;;5108145;27;19911;-71
2023/12/19 10:10:43;;;;;;;;;;;6.50;99.90;;;;;;5105679;28;19912;-71
2023/12/19 10:13:09;;;;;;;;;;;6.50;99.90;;;;;;5104094;28;19922;-71
2023/12/19 10:15:35;;;;;;;;;;;6.50;99.90;;;;;;5106348;28;19912;-71
2023/12/19 10:18:08;;;;;;;;;;;6.50;99.90;;;;;;5107038;28;19912;-71
2023/12/19 10:20:33;;;;;;;;;;;6.50;99.90;;;;;;5114255;27;20421;-71
2023/12/19 10:23:03;;;;;;;;;;;6.50;99.90;;;;;;5120277;27;19958;-71
2023/12/19 10:25:29;;;;;;;;;;;6.50;99.90;;;;;;5116631;27;19911;-71
2023/12/19 10:28:16;;;;;;;;;;;6.50;99.90;;;;;;5105996;28;20283;-71
2023/12/19 10:30:42;;;;;;;;;;;6.50;99.90;;;;;;5105559;28;19980;-71
2023/12/19 10:33:08;;;;;;;;;;;6.50;99.90;;;;;;5103965;28;19925;-71
2023/12/19 10:35:40;;;;;;;;;;;6.50;99.90;;;;;;5107336;27;19920;-72
2023/12/19 10:38:06;;;;;;;;;;;6.50;99.90;;;;;;5104702;27;20384;-71
2023/12/19 10:40:32;;;;;;;;;;;6.50;99.90;;;;;;5105131;27;19911;-71
2023/12/19 10:42:58;;;;;;;;;;;6.50;99.90;;;;;;5103493;28;19955;-71
2023/12/19 10:45:27;;;;;;;;;;;6.60;99.90;;;;;;5103202;27;19915;-71
2023/12/19 10:47:52;;;;;;;;;;;6.60;99.90;;;;;;5103976;28;19918;-71
2023/12/19 10:50:18;;;;;;;;;;;6.60;99.90;;;;;;5109053;27;19912;-71
2023/12/19 10:52:44;;;;;;;;;;;6.60;99.90;;;;;;5105146;28;19919;-71
2023/12/19 10:55:17;;;;;;;;;;;6.60;99.90;;;;;;5105762;28;19916;-71
2023/12/19 10:57:46;;;;;;;;;;;6.60;99.90;;;;;;5105459;27;19951;-71
2023/12/19 11:00:13;;;;;;;;;;;6.60;99.90;;;;;;5111522;27;19968;-71
2023/12/19 11:02:54;;;;;;;;;;;6.60;99.90;;;;;;5103587;27;20027;-72
2023/12/19 11:05:40;;;;;;;;;;;6.60;99.90;;;;;;5104357;28;19916;-71
2023/12/19 11:08:17;;;;;;;;;;;6.60;99.90;;;;;;5105420;27;19914;-71
2023/12/19 11:10:59;;;;;;;;;;;6.60;99.90;;;;;;5104361;28;19927;-71
2023/12/19 11:13:25;;;;;;;;;;;6.60;99.90;;;;;;5105478;27;19916;-71
2023/12/19 11:15:53;;;;;;;;;;;6.60;99.90;;;;;;5107223;27;19912;-72
2023/12/19 11:18:25;;;;;;;;;;;6.60;99.90;;;;;;5104921;28;19934;-71
2023/12/19 11:21:05;;;;;;;;;;;6.60;99.90;;;;;;5100776;28;19919;-71
2023/12/19 11:23:31;;;;;;;;;;;6.60;99.90;;;;;;5104174;28;19916;-71
2023/12/19 11:26:04;;;;;;;;;;;6.70;99.90;;;;;;5104068;28;20298;-71
2023/12/19 11:28:36;;;;;;;;;;;6.60;99.90;;;;;;5107259;27;19950;-71
2023/12/19 11:31:01;;;;;;;;;;;6.70;99.90;;;;;;5100086;27;19919;-71
2023/12/19 11:33:29;;;;;;;;;;;6.70;99.90;;;;;;5109188;27;19989;-71
2023/12/19 11:35:54;;;;;;;;;;;6.60;99.90;;;;;;5105055;27;19916;-71
2023/12/19 11:38:25;;;;;;;;;;;6.70;99.90;;;;;;5104098;28;20356;-71
2023/12/19 11:40:55;;;;;;;;;;;6.70;99.90;;;;;;5105285;27;19918;-71
2023/12/19 11:43:27;;;;;;;;;;;6.70;99.90;;;;;;5104525;27;19926;-71
2023/12/19 11:45:53;;;;;;;;;;;6.70;99.90;;;;;;5109878;27;19917;-71
2023/12/19 11:48:34;;;;;;;;;;;6.70;99.90;;;;;;5104165;27;19912;-71
2023/12/19 11:51:00;;;;;;;;;;;6.70;99.90;;;;;;5104665;28;19916;-71
2023/12/19 11:53:25;;;;;;;;;;;6.70;99.90;;;;;;5103102;28;19968;-71
2023/12/19 11:56:00;;;;;;;;;;;6.70;99.90;;;;;;5103196;28;20355;-71
2023/12/19 11:58:26;;;;;;;;;;;6.70;99.90;;;;;;5103276;28;20084;-71
2023/12/19 12:00:58;;;;;;;;;;;6.70;99.90;;;;;;5104961;28;19916;-71
2023/12/19 12:03:24;;;;;;;;;;;6.70;99.90;;;;;;5101416;28;19927;-71
2023/12/19 12:05:50;;;;;;;;;;;6.70;99.90;;;;;;5103544;28;19916;-71
2023/12/19 12:08:16;;;;;;;;;;;6.70;99.90;;;;;;5108901;27;20050;-71
2023/12/19 12:10:43;;;;;;;;;;;6.70;99.90;;;;;;5111387;28;19998;-71
2023/12/19 12:13:08;;;;;;;;;;;6.70;99.90;;;;;;5104408;28;20313;-71
2023/12/19 12:15:34;;;;;;;;;;;6.70;99.90;;;;;;5102532;28;19915;-71
2023/12/19 12:18:06;;;;;;;;;;;6.70;99.90;;;;;;5108327;28;19911;-71
2023/12/19 12:20:33;;;;;;;;;;;6.70;99.90;;;;;;5106042;27;20002;-71
2023/12/19 12:22:58;;;;;;;;;;;6.70;99.90;;;;;;5104268;28;19927;-72
2023/12/19 12:25:24;;;;;;;;;;;6.80;99.90;;;;;;5104506;28;19911;-71
2023/12/19 12:27:55;;;;;;;;;;;6.70;99.90;;;;;;5119050;27;19986;-71
2023/12/19 12:30:24;;;;;;;;;;;6.80;99.90;;;;;;5102447;28;20499;-71
2023/12/19 12:32:50;;;;;;;;;;;6.80;99.90;;;;;;5096524;28;19920;-71
2023/12/19 12:35:23;;;;;;;;;;;6.80;99.90;;;;;;5103727;28;20497;-71
2023/12/19 12:37:54;;;;;;;;;;;6.80;99.90;;;;;;5104518;28;19912;-71
2023/12/19 12:40:19;;;;;;;;;;;6.80;99.90;;;;;;5105956;28;20320;-71
2023/12/19 12:42:45;;;;;;;;;;;6.70;99.90;;;;;;5104591;27;19958;-71
2023/12/19 13:31:37;;;;;;;;;;;6.80;99.90;;;;;;5113234;27;19996;-71
2023/12/19 13:34:04;;;;;;;;;;;6.80;99.90;;;;;;5124715;27;19984;-71
2023/12/19 13:36:30;;;;;;;;;;;6.80;99.90;;;;;;5131296;27;19911;-71
2023/12/19 13:38:56;;;;;;;;;;;6.80;99.90;;;;;;5129169;27;19918;-71
2023/12/19 13:41:21;;;;;;;;;;;6.80;99.90;;;;;;5127465;27;20321;-71
2023/12/19 13:43:47;;;;;;;;;;;6.80;99.90;;;;;;5135464;27;20355;-71
2023/12/19 13:46:13;;;;;;;;;;;6.80;99.90;;;;;;5118185;27;20091;-71
2023/12/19 13:48:38;;;;;;;;;;;6.80;99.90;;;;;;5139236;27;19951;-71
2023/12/19 13:51:04;;;;;;;;;;;6.80;99.90;;;;;;5128255;27;20621;-71
2023/12/19 13:53:30;;;;;;;;;;;6.80;99.90;;;;;;5133512;27;19911;-71
2023/12/19 13:55:55;;;;;;;;;;;6.80;99.90;;;;;;5108847;27;19907;-71
2023/12/19 13:58:22;;;;;;;;;;;6.80;99.90;;;;;;5134321;27;20446;-71
2023/12/19 14:00:48;;;;;;;;;;;6.80;99.90;;;;;;5126581;27;19921;-71
2023/12/19 14:03:14;;;;;;;;;;;6.80;99.90;;;;;;5148826;27;19919;-71
2023/12/19 14:05:42;;;;;;;;;;;6.80;99.90;;;;;;5113649;27;20371;-71
2023/12/19 14:08:09;;;;;;;;;;;6.80;99.90;;;;;;5108465;27;20008;-71
2023/12/19 14:10:35;;;;;;;;;;;6.80;99.90;;;;;;5127339;27;20052;-71
2023/12/19 14:13:02;;;;;;;;;;;6.80;99.90;;;;;;5146701;27;20536;-71
2023/12/19 14:15:27;;;;;;;;;;;6.90;99.90;;;;;;5142156;27;19911;-71
2023/12/19 14:17:53;;;;;;;;;;;6.80;99.90;;;;;;5127557;27;19979;-71
2023/12/19 14:20:18;;;;;;;;;;;6.90;99.90;;;;;;5127297;27;19912;-71
2023/12/19 14:22:44;;;;;;;;;;;6.90;99.90;;;;;;5127819;27;19922;-71
2023/12/19 14:25:11;;;;;;;;;;;6.90;99.90;;;;;;5125660;27;20012;-71
2023/12/19 14:27:37;;;;;;;;;;;6.90;99.90;;;;;;5136120;27;19963;-71
2023/12/19 14:30:05;;;;;;;;;;;6.90;99.90;;;;;;5111496;27;19920;-71
2023/12/19 14:32:31;;;;;;;;;;;6.80;99.90;;;;;;5132874;27;19929;-71
2023/12/19 14:34:57;;;;;;;;;;;6.90;99.90;;;;;;5130692;27;20602;-71
2023/12/19 14:37:22;;;;;;;;;;;6.90;99.90;;;;;;5148236;27;20535;-71
2023/12/19 14:39:50;;;;;;;;;;;6.90;99.90;;;;;;5138537;27;19918;-71
2023/12/19 14:42:17;;;;;;;;;;;6.90;99.90;;;;;;5127414;27;19918;-71
2023/12/19 14:44:43;;;;;;;;;;;6.90;99.90;;;;;;5126549;27;20384;-71
2023/12/19 14:47:09;;;;;;;;;;;6.90;99.90;;;;;;5134706;27;19916;-71
2023/12/19 14:49:37;;;;;;;;;;;6.90;99.90;;;;;;5135176;27;20483;-71
2023/12/19 14:52:03;;;;;;;;;;;6.90;99.90;;;;;;5137619;27;19918;-71
2023/12/19 14:54:29;;;;;;;;;;;6.90;99.90;;;;;;5139027;27;19955;-71
2023/12/19 14:56:55;;;;;;;;;;;6.90;99.90;;;;;;5128997;27;20034;-71
2023/12/19 14:59:20;;;;;;;;;;;6.90;99.90;;;;;;5110858;27;19911;-71
2023/12/19 15:01:46;;;;;;;;;;;6.90;99.90;;;;;;5134440;27;19907;-71
2023/12/19 15:04:13;;;;;;;;;;;6.90;99.90;;;;;;5116174;27;20431;-71
2023/12/19 15:06:39;;;;;;;;;;;6.90;99.90;;;;;;5126536;27;20006;-71
2023/12/19 15:09:05;;;;;;;;;;;6.90;99.90;;;;;;5128479;27;20010;-71
2023/12/19 15:11:31;;;;;;;;;;;6.90;99.90;;;;;;5136887;27;19958;-71
2023/12/19 15:13:56;;;;;;;;;;;6.90;99.90;;;;;;5122588;27;20540;-71